Time;durP1;ratioP1;P1;durP2;ratioP2;P2;SDS_P1;SDS_P2;PMS_P1;PMS_P2;Temp;Humidity;BMP_temperature;BMP_pressure;BME280_temperature;BME280_humidity;BME280_pressure;Samples;Min_cycle;Max_cycle;Signal;HPM_P1;HPM_P2
2024/01/28 00:03:42;;;;;;;23.65;10.50;;;;;;;0.74;93.70;102325.13;10456806;28;20056;-79
2024/01/28 00:08:46;;;;;;;29.60;10.90;;;;;;;0.74;94.00;102311.91;10457253;28;20052;-80
2024/01/28 00:13:50;;;;;;;24.67;10.50;;;;;;;0.68;94.16;102296.97;10437439;28;20068;-79
2024/01/28 00:18:57;;;;;;;23.63;10.15;;;;;;;0.54;95.55;102296.22;10446177;28;20058;-80
2024/01/28 00:24:04;;;;;;;22.45;9.20;;;;;;;0.45;96.47;102291.91;10440670;28;20136;-79
2024/01/28 00:29:09;;;;;;;23.50;10.13;;;;;;;0.54;95.68;102280.34;10464055;28;20070;-80
2024/01/28 00:34:12;;;;;;;28.17;10.13;;;;;;;0.47;96.31;102274.25;10460432;28;20053;-80
2024/01/28 00:39:16;;;;;;;23.38;9.60;;;;;;;0.49;96.39;102261.88;10459760;28;20055;-77
2024/01/28 00:44:20;;;;;;;26.63;9.60;;;;;;;0.41;96.57;102257.53;10461966;28;20081;-78
2024/01/28 00:49:29;;;;;;;26.30;8.93;;;;;;;0.33;97.17;102254.97;10467322;28;20041;-78
2024/01/28 00:54:32;;;;;;;24.58;8.20;;;;;;;0.35;96.85;102254.06;10454245;28;20526;-77
2024/01/28 00:59:37;;;;;;;22.17;8.80;;;;;;;0.43;96.54;102254.00;10452646;28;20053;-80
2024/01/28 01:04:40;;;;;;;23.05;7.50;;;;;;;0.43;96.18;102245.19;10440652;28;20075;-80
2024/01/28 01:09:43;;;;;;;18.75;8.32;;;;;;;0.33;96.77;102254.97;10455967;28;20066;-79
2024/01/28 01:14:48;;;;;;;28.33;8.18;;;;;;;0.34;96.98;102259.38;10443724;28;20064;-78
2024/01/28 01:19:51;;;;;;;29.23;7.75;;;;;;;0.31;97.39;102265.56;10446243;28;21265;-78
2024/01/28 01:24:54;;;;;;;20.95;8.20;;;;;;;0.38;96.57;102263.75;10438789;28;20057;-79
2024/01/28 01:29:58;;;;;;;23.60;8.88;;;;;;;0.41;95.82;102257.53;10471123;28;20044;-82
2024/01/28 01:35:01;;;;;;;19.98;7.85;;;;;;;0.34;96.97;102248.81;10471214;28;20401;-77
2024/01/28 01:40:06;;;;;;;24.13;8.35;;;;;;;0.39;96.13;102261.09;10478607;28;20179;-77
2024/01/28 01:45:12;;;;;;;22.15;8.00;;;;;;;0.38;96.14;102263.75;10480093;28;20052;-84
2024/01/28 01:50:16;;;;;;;23.05;8.35;;;;;;;0.42;96.17;102261.97;10458717;28;20056;-78
2024/01/28 01:55:19;;;;;;;23.60;8.35;;;;;;;0.41;96.03;102257.53;10479267;28;20051;-78
2024/01/28 02:00:24;;;;;;;27.15;8.65;;;;;;;0.45;95.70;102251.34;10458747;28;20055;-79
2024/01/28 02:05:28;;;;;;;20.85;7.97;;;;;;;0.43;95.55;102250.50;10455042;28;20044;-78
2024/01/28 02:10:31;;;;;;;19.90;7.93;;;;;;;0.36;95.78;102247.91;10453265;28;20427;-78
2024/01/28 02:15:38;;;;;;;22.15;8.40;;;;;;;0.30;96.77;102241.78;10446448;28;20044;-77
2024/01/28 02:20:42;;;;;;;22.80;7.90;;;;;;;0.33;95.93;102241.75;10469560;28;20045;-77
2024/01/28 02:25:46;;;;;;;17.77;7.43;;;;;;;0.29;95.68;102226.81;10467953;28;20060;-79
2024/01/28 02:30:49;;;;;;;16.55;8.02;;;;;;;0.32;95.67;102229.44;10468898;28;20429;-78
2024/01/28 02:35:52;;;;;;;25.08;7.20;;;;;;;0.36;96.52;102226.75;10481091;28;20084;-80
2024/01/28 02:40:57;;;;;;;22.20;7.72;;;;;;;0.44;96.49;102215.22;10466712;28;20052;-80
2024/01/28 02:46:00;;;;;;;21.63;7.32;;;;;;;0.41;96.22;102208.19;10435500;28;20053;-80
2024/01/28 02:51:03;;;;;;;22.83;7.05;;;;;;;0.37;96.38;102206.47;10458296;28;20048;-79
2024/01/28 02:56:08;;;;;;;23.08;7.38;;;;;;;0.41;97.11;102196.72;10476716;28;20084;-79
2024/01/28 03:01:11;;;;;;;20.88;7.88;;;;;;;0.41;97.05;102187.03;10442792;28;20175;-79
2024/01/28 03:06:14;;;;;;;14.15;7.20;;;;;;;0.38;96.77;102179.13;10443366;28;20058;-79
2024/01/28 03:11:19;;;;;;;23.52;6.75;;;;;;;0.38;97.04;102189.69;10445895;28;20043;-79
2024/01/28 03:16:22;;;;;;;20.67;8.15;;;;;;;0.37;96.88;102172.09;10443885;28;20202;-78
2024/01/28 03:21:25;;;;;;;22.98;6.88;;;;;;;0.40;96.88;102166.78;10456056;28;20063;-80
2024/01/28 03:26:29;;;;;;;18.25;7.13;;;;;;;0.38;96.88;102150.94;10442925;28;20197;-80
2024/01/28 03:31:33;;;;;;;18.08;6.90;;;;;;;0.38;97.16;102169.44;10444175;28;20051;-79
2024/01/28 03:36:36;;;;;;;18.90;7.80;;;;;;;0.32;97.12;102164.19;10450054;28;20064;-78
2024/01/28 03:41:41;;;;;;;19.40;7.20;;;;;;;0.29;97.71;102166.00;10452060;28;20052;-78
2024/01/28 03:46:44;;;;;;;21.83;7.00;;;;;;;0.31;97.42;102156.31;10459727;28;20456;-80
2024/01/28 03:51:48;;;;;;;22.00;8.13;;;;;;;0.35;97.84;102153.59;10446209;28;20527;-79
2024/01/28 03:56:52;;;;;;;22.17;9.27;;;;;;;0.31;98.03;102148.38;10444518;28;20063;-79
2024/01/28 04:01:55;;;;;;;24.83;6.97;;;;;;;0.26;98.34;102145.75;10438211;28;20055;-80
2024/01/28 04:06:58;;;;;;;20.80;7.88;;;;;;;0.27;98.30;102141.34;10442196;28;20598;-79
2024/01/28 04:12:04;;;;;;;27.90;8.32;;;;;;;0.36;97.95;102134.22;10436266;28;20139;-79
2024/01/28 04:17:07;;;;;;;24.05;7.25;;;;;;;0.42;97.42;102148.25;10439676;28;20049;-79
2024/01/28 04:22:10;;;;;;;20.58;7.20;;;;;;;0.41;96.99;102133.28;10439770;28;20044;-78
2024/01/28 04:27:15;;;;;;;22.90;7.03;;;;;;;0.29;97.47;102145.72;10435577;28;20415;-79
2024/01/28 04:32:18;;;;;;;19.50;7.57;;;;;;;0.35;97.17;102139.50;10439271;28;20469;-79
2024/01/28 04:37:22;;;;;;;26.15;8.02;;;;;;;0.29;97.49;102129.88;10432023;28;20056;-79
2024/01/28 04:42:26;;;;;;;20.58;6.93;;;;;;;0.30;97.76;102136.94;10441863;28;20422;-79
2024/01/28 04:47:29;;;;;;;20.30;7.05;;;;;;;0.37;97.83;102138.59;10440215;28;20044;-79
2024/01/28 04:52:33;;;;;;;23.08;7.13;;;;;;;0.30;97.34;102142.22;10444519;28;20050;-79
2024/01/28 04:57:37;;;;;;;16.65;6.75;;;;;;;0.35;98.22;102127.16;10442006;28;20044;-78
2024/01/28 05:02:40;;;;;;;24.40;7.72;;;;;;;0.35;97.56;102121.00;10448325;28;20145;-78
2024/01/28 05:07:43;;;;;;;16.55;6.55;;;;;;;0.32;97.72;102115.75;10471120;28;20064;-79
2024/01/28 05:12:48;;;;;;;26.45;7.20;;;;;;;0.28;97.33;102104.34;10448320;28;20040;-79
2024/01/28 05:17:51;;;;;;;26.50;6.78;;;;;;;0.34;97.38;102095.47;10454316;28;20048;-79
2024/01/28 05:22:54;;;;;;;22.17;7.20;;;;;;;0.35;96.63;102103.34;10448566;28;20876;-79
2024/01/28 05:27:59;;;;;;;16.08;6.05;;;;;;;0.31;96.67;102101.66;10448788;28;20048;-79
2024/01/28 05:33:04;;;;;;;22.95;6.50;;;;;;;0.27;96.29;102110.50;10448263;28;20059;-79
2024/01/28 05:38:07;;;;;;;23.60;6.50;;;;;;;0.22;96.48;102101.75;10454528;28;20132;-78
2024/01/28 05:43:12;;;;;;;17.63;6.30;;;;;;;0.25;96.54;102104.38;10447419;28;20049;-79
2024/01/28 05:48:15;;;;;;;20.88;6.43;;;;;;;0.20;96.36;102110.59;10447710;28;20045;-79
2024/01/28 05:53:18;;;;;;;27.38;5.82;;;;;;;0.21;96.38;102100.00;10444673;28;20053;-78
2024/01/28 05:58:23;;;;;;;17.15;6.43;;;;;;;0.18;96.37;102084.16;10438040;28;20046;-77
2024/01/28 06:03:26;;;;;;;17.00;5.88;;;;;;;0.16;95.85;102081.56;10439030;28;20044;-79
2024/01/28 06:08:29;;;;;;;17.20;5.63;;;;;;;0.15;96.67;102084.22;10441358;28;20052;-79
2024/01/28 06:13:34;;;;;;;18.63;5.20;;;;;;;0.17;95.52;102077.16;10439119;28;20056;-79
2024/01/28 06:18:43;;;;;;;22.48;6.43;;;;;;;0.18;95.90;102065.66;10442585;28;20064;-79
2024/01/28 06:23:46;;;;;;;19.90;5.70;;;;;;;0.17;95.16;102059.50;10449876;28;20053;-79
2024/01/28 06:28:51;;;;;;;16.95;5.70;;;;;;;0.17;95.17;102053.34;10444978;28;20062;-79
2024/01/28 06:33:54;;;;;;;17.95;5.60;;;;;;;0.21;94.61;102056.84;10450986;28;20055;-79
2024/01/28 06:38:57;;;;;;;17.50;5.40;;;;;;;0.16;94.63;102046.31;10447562;28;20049;-79
2024/01/28 06:44:03;;;;;;;16.77;5.22;;;;;;;0.15;94.66;102055.13;10442601;28;20112;-79
2024/01/28 06:49:06;;;;;;;22.48;5.80;;;;;;;0.12;94.89;102050.75;10444125;28;20241;-79
2024/01/28 06:54:10;;;;;;;17.33;5.75;;;;;;;0.15;94.66;102052.50;10441846;28;20176;-79
2024/01/28 06:59:14;;;;;;;16.23;5.40;;;;;;;0.07;94.93;102049.94;10442137;28;20052;-79
2024/01/28 07:04:17;;;;;;;14.85;6.00;;;;;;;0.07;94.40;102047.28;10444705;28;20195;-79
2024/01/28 07:09:21;;;;;;;16.42;6.00;;;;;;;0.10;94.90;102041.09;10435518;28;20060;-79
2024/01/28 07:14:25;;;;;;;14.40;5.47;;;;;;;0.14;94.52;102037.53;10459768;28;20032;-78
2024/01/28 07:19:28;;;;;;;20.55;6.28;;;;;;;0.10;94.36;102030.53;10450564;28;20044;-79
2024/01/28 07:24:31;;;;;;;22.67;6.07;;;;;;;0.07;94.50;102030.56;10430904;28;20790;-79
2024/01/28 07:29:36;;;;;;;14.20;5.45;;;;;;;0.09;93.93;102031.41;10446688;28;20048;-79
2024/01/28 07:34:39;;;;;;;21.05;6.07;;;;;;;0.13;93.83;102027.84;10436160;28;20060;-79
2024/01/28 07:39:42;;;;;;;18.75;5.93;;;;;;;0.16;93.51;102019.88;10445393;28;20612;-79
2024/01/28 07:44:46;;;;;;;18.33;6.13;;;;;;;0.13;93.05;102007.56;10440210;28;20053;-79
2024/01/28 07:49:50;;;;;;;24.73;6.57;;;;;;;0.22;93.12;102014.53;10426297;28;20079;-78
2024/01/28 07:54:54;;;;;;;16.77;6.50;;;;;;;0.26;92.82;102012.72;10436798;28;20548;-79
2024/01/28 07:59:59;;;;;;;21.05;6.18;;;;;;;0.71;93.02;102005.94;10430880;28;20121;-78
2024/01/28 08:05:02;;;;;;;18.20;5.80;;;;;;;1.15;89.14;102020.31;10432212;28;20057;-78
2024/01/28 08:10:05;;;;;;;15.30;5.10;;;;;;;1.79;84.43;102005.06;10442523;28;20052;-78
2024/01/28 08:15:10;;;;;;;13.88;5.30;;;;;;;2.25;80.37;102003.28;10440181;28;20532;-77
2024/01/28 08:20:13;;;;;;;10.68;4.53;;;;;;;2.62;77.59;102003.41;10436309;28;21100;-76
2024/01/28 08:25:16;;;;;;;11.48;4.25;;;;;;;2.88;75.73;102015.22;10434816;28;20041;-78
2024/01/28 08:30:22;;;;;;;16.38;4.93;;;;;;;3.14;73.96;102012.81;10433917;28;21252;-78
2024/01/28 08:35:26;;;;;;;12.60;4.22;;;;;;;3.50;71.81;102005.72;10451011;28;20112;-78
2024/01/28 08:40:29;;;;;;;13.80;4.10;;;;;;;3.76;71.03;102006.84;10455872;28;20813;-78
2024/01/28 08:45:36;;;;;;;17.05;6.13;;;;;;;3.65;70.89;101993.84;10457982;28;20082;-79
2024/01/28 08:50:39;;;;;;;11.68;4.45;;;;;;;4.10;69.14;102000.59;10460447;28;20056;-78
2024/01/28 08:55:42;;;;;;;11.20;4.65;;;;;;;4.55;67.28;102000.16;10470217;28;20041;-79
2024/01/28 09:00:47;;;;;;;17.30;6.15;;;;;;;4.53;66.36;101999.34;10460147;28;20051;-77
2024/01/28 09:05:51;;;;;;;16.25;6.38;;;;;;;5.13;65.19;101995.72;10476098;28;20051;-77
2024/01/28 09:10:55;;;;;;;11.68;6.07;;;;;;;5.59;62.83;101995.94;10477820;28;20656;-80
2024/01/28 09:16:00;;;;;;;14.73;6.35;;;;;;;5.61;62.19;101980.78;10477011;28;20058;-77
2024/01/28 09:21:04;;;;;;;16.17;4.78;;;;;;;5.63;61.29;101982.47;10473646;28;20057;-77
2024/01/28 09:26:07;;;;;;;11.40;5.57;;;;;;;5.97;59.72;101977.72;10474237;28;20052;-77
2024/01/28 09:31:11;;;;;;;19.92;6.03;;;;;;;5.87;59.59;101972.72;10492192;28;20053;-77
2024/01/28 09:36:14;;;;;;;21.52;8.07;;;;;;;6.13;58.97;101974.41;10476446;28;20045;-78
2024/01/28 09:41:23;;;;;;;16.55;5.72;;;;;;;6.69;57.64;101970.53;10458815;28;20043;-78
2024/01/28 09:46:29;;;;;;;10.85;4.22;;;;;;;6.88;56.19;101961.78;10459140;28;20044;-78
2024/01/28 09:51:32;;;;;;;10.05;3.70;;;;;;;7.32;55.43;101956.41;10460263;28;20049;-78
2024/01/28 09:56:36;;;;;;;11.77;4.20;;;;;;;7.12;55.79;101965.25;10464009;28;20051;-78
2024/01/28 10:01:43;;;;;;;11.57;3.90;;;;;;;7.75;54.87;101952.72;10459600;28;20048;-79
2024/01/28 10:06:48;;;;;;;9.68;3.83;;;;;;;7.58;53.11;101942.78;10465053;28;20044;-79
2024/01/28 10:11:51;;;;;;;6.78;3.40;;;;;;;7.50;53.30;101936.91;10470850;28;20419;-79
2024/01/28 10:16:58;;;;;;;8.93;3.33;;;;;;;7.50;52.62;101937.75;10467046;28;20131;-79
2024/01/28 10:22:01;;;;;;;6.72;3.20;;;;;;;7.32;53.32;101935.88;10473339;28;20055;-79
2024/01/28 10:27:08;;;;;;;10.75;3.67;;;;;;;7.71;52.60;101941.31;10466443;28;20609;-78
2024/01/28 10:32:12;;;;;;;14.52;4.13;;;;;;;7.90;51.98;101938.69;10460729;28;20681;-77
2024/01/28 10:37:17;;;;;;;11.63;4.45;;;;;;;8.16;51.55;101929.44;10464938;28;20048;-77
2024/01/28 10:42:21;;;;;;;10.27;4.13;;;;;;;8.60;50.18;101928.31;10463758;28;21016;-76
2024/01/28 10:47:28;;;;;;;10.48;3.55;;;;;;;8.69;49.93;101918.97;10470052;28;20527;-77
2024/01/28 10:52:33;;;;;;;9.75;3.58;;;;;;;9.49;47.89;101919.38;10460337;28;21185;-78
2024/01/28 10:57:37;;;;;;;10.13;4.43;;;;;;;9.44;47.99;101909.81;10463809;28;20051;-79
2024/01/28 11:02:43;;;;;;;6.60;3.40;;;;;;;10.29;45.62;101890.94;10453743;28;21900;-79
2024/01/28 11:07:47;;;;;;;9.23;3.60;;;;;;;10.86;44.18;101879.63;10462685;28;20055;-79
2024/01/28 11:12:53;;;;;;;8.10;3.45;;;;;;;11.44;43.21;101868.09;10467479;28;20045;-80
2024/01/28 11:17:58;;;;;;;7.15;3.63;;;;;;;11.78;42.05;101863.28;10472905;28;20117;-78
2024/01/28 11:23:02;;;;;;;8.23;2.92;;;;;;;11.83;42.00;101858.50;10461180;28;20120;-79
2024/01/28 11:28:06;;;;;;;8.60;3.33;;;;;;;12.66;40.54;101849.59;10456729;28;20103;-76
2024/01/28 11:33:12;;;;;;;7.22;3.30;;;;;;;12.98;40.18;101853.69;10460931;28;20045;-78
2024/01/28 11:38:21;;;;;;;7.05;3.20;;;;;;;12.90;40.07;101847.94;10460127;28;20052;-78
2024/01/28 11:43:24;;;;;;;9.60;2.72;;;;;;;12.92;39.14;101839.75;10463259;28;21047;-79
2024/01/28 11:48:29;;;;;;;6.53;3.00;;;;;;;13.00;38.88;101830.16;10461072;28;20055;-79
2024/01/28 11:53:33;;;;;;;6.55;3.00;;;;;;;13.49;39.31;101829.50;10455365;28;20036;-79
2024/01/28 11:58:36;;;;;;;7.18;2.95;;;;;;;13.43;38.39;101826.34;10455311;28;20102;-76
2024/01/28 12:03:41;;;;;;;3.78;2.80;;;;;;;13.50;38.04;101822.25;10455939;28;20056;-77
2024/01/28 12:08:45;;;;;;;7.78;2.78;;;;;;;14.11;37.68;101814.25;10448737;28;20476;-76
2024/01/28 12:13:49;;;;;;;7.78;3.45;;;;;;;13.73;38.62;101814.34;10503441;28;20056;-78
2024/01/28 12:18:56;;;;;;;8.68;3.75;;;;;;;14.05;37.18;101809.31;10466812;28;20048;-78
2024/01/28 12:24:02;;;;;;;9.15;4.57;;;;;;;14.54;37.35;101805.69;10440937;28;20053;-79
2024/01/28 12:29:05;;;;;;;7.03;2.90;;;;;;;15.08;36.56;101791.59;10461515;28;20044;-78
2024/01/28 12:34:15;;;;;;;6.47;2.92;;;;;;;15.05;36.62;101781.00;10480786;28;20047;-78
2024/01/28 12:39:19;;;;;;;7.97;3.38;;;;;;;15.13;36.93;101770.44;10501428;28;20681;-77
2024/01/28 12:44:22;;;;;;;5.43;2.80;;;;;;;14.52;37.46;101772.47;10505136;28;20130;-77
2024/01/28 12:49:27;;;;;;;10.77;3.25;;;;;;;14.05;38.18;101768.78;10511005;28;20044;-79
2024/01/28 12:54:30;;;;;;;7.07;3.65;;;;;;;13.47;39.30;101765.78;10506972;28;20044;-78
2024/01/28 12:59:33;;;;;;;6.97;2.78;;;;;;;12.78;40.14;101768.75;10491609;28;20055;-77
2024/01/28 13:04:39;;;;;;;5.82;3.30;;;;;;;12.49;40.50;101757.22;10501827;28;20078;-78
2024/01/28 13:09:42;;;;;;;9.60;4.43;;;;;;;13.09;40.33;101747.72;10503281;28;20058;-77
2024/01/28 13:14:45;;;;;;;5.43;2.95;;;;;;;13.25;39.84;101732.19;10495530;28;20476;-79
2024/01/28 13:19:53;;;;;;;4.68;2.42;;;;;;;12.75;40.36;101720.41;10478741;28;20052;-77
2024/01/28 13:24:57;;;;;;;5.07;2.70;;;;;;;12.83;40.68;101722.56;10498277;28;20056;-78
2024/01/28 13:30:00;;;;;;;8.75;3.08;;;;;;;13.26;39.76;101724.94;10497638;28;20426;-80
2024/01/28 13:35:06;;;;;;;4.65;2.47;;;;;;;12.90;40.21;101725.72;10498234;28;20048;-79
2024/01/28 13:40:10;;;;;;;6.70;3.50;;;;;;;13.16;40.04;101723.88;10501650;28;20261;-79
2024/01/28 13:45:13;;;;;;;6.68;2.65;;;;;;;13.36;39.79;101727.88;10496366;28;20147;-78
2024/01/28 13:50:18;;;;;;;5.68;2.53;;;;;;;13.15;40.06;101703.25;10479642;28;20422;-79
2024/01/28 13:55:21;;;;;;;8.70;3.38;;;;;;;13.18;40.12;101700.34;10497263;28;20047;-78
2024/01/28 14:00:24;;;;;;;6.13;2.60;;;;;;;12.96;40.55;101696.47;10498030;28;20048;-77
2024/01/28 14:05:28;;;;;;;6.53;2.97;;;;;;;12.63;41.04;101682.66;10511795;28;20596;-78
2024/01/28 14:10:31;;;;;;;5.38;2.60;;;;;;;13.11;40.38;101672.94;10497602;28;20596;-79
2024/01/28 14:15:37;;;;;;;5.80;2.90;;;;;;;13.04;40.78;101669.81;10475372;28;20048;-80
2024/01/28 14:20:42;;;;;;;5.75;2.75;;;;;;;12.92;39.91;101670.69;10495411;28;20083;-78
2024/01/28 14:25:46;;;;;;;5.78;3.25;;;;;;;12.92;40.73;101668.00;10515371;28;22062;-79
2024/01/28 14:30:50;;;;;;;8.88;3.05;;;;;;;12.94;40.66;101662.47;10507610;28;20503;-79
2024/01/28 14:35:54;;;;;;;7.60;2.47;;;;;;;12.66;40.89;101663.56;10499890;28;20051;-82
2024/01/28 14:40:57;;;;;;;5.28;2.60;;;;;;;12.27;41.19;101657.22;10503867;28;20051;-79
2024/01/28 14:46:01;;;;;;;5.95;2.70;;;;;;;12.13;41.58;101655.47;10455680;28;20050;-78
2024/01/28 14:51:09;;;;;;;4.70;2.70;;;;;;;12.12;41.78;101654.63;10456638;28;20056;-82
2024/01/28 14:56:12;;;;;;;9.52;2.65;;;;;;;12.02;41.64;101655.34;10452919;28;20044;-79
2024/01/28 15:01:15;;;;;;;3.70;2.63;;;;;;;11.79;42.16;101649.63;10451058;28;20040;-80
2024/01/28 15:06:20;;;;;;;4.80;2.60;;;;;;;11.48;42.39;101643.56;10459911;28;20110;-78
2024/01/28 15:11:24;;;;;;;3.00;2.15;;;;;;;10.98;43.11;101650.34;10459932;28;20055;-79
2024/01/28 15:16:27;;;;;;;4.70;2.35;;;;;;;10.79;43.63;101647.06;10453756;28;20111;-77
2024/01/28 15:21:31;;;;;;;4.18;2.63;;;;;;;10.62;44.03;101642.75;10460200;28;20063;-78
2024/01/28 15:26:34;;;;;;;4.93;2.63;;;;;;;10.24;44.99;101643.22;10452761;28;20607;-78
2024/01/28 15:31:37;;;;;;;6.40;2.83;;;;;;;10.24;45.45;101643.22;10449530;28;20053;-78
2024/01/28 15:36:42;;;;;;;6.40;3.33;;;;;;;10.00;46.07;101645.53;10476694;28;20048;-79
2024/01/28 15:41:46;;;;;;;9.30;2.83;;;;;;;9.14;48.08;101644.19;10492293;28;20044;-77
2024/01/28 15:46:50;;;;;;;6.20;2.90;;;;;;;8.50;49.43;101635.97;10491909;28;21247;-77
2024/01/28 15:51:56;;;;;;;7.18;2.78;;;;;;;8.11;51.19;101625.47;10500640;28;20635;-77
2024/01/28 15:56:59;;;;;;;8.07;3.40;;;;;;;7.77;52.83;101635.19;10487926;28;20190;-77
2024/01/28 16:02:02;;;;;;;9.05;3.67;;;;;;;7.62;53.12;101641.28;10453476;28;20052;-79
2024/01/28 16:07:07;;;;;;;8.63;3.40;;;;;;;7.41;53.89;101643.22;10445815;28;21242;-79
2024/01/28 16:12:10;;;;;;;6.85;2.90;;;;;;;7.13;54.79;101639.16;10472131;28;20058;-78
2024/01/28 16:17:18;;;;;;;9.80;3.50;;;;;;;6.97;55.22;101633.66;10460633;28;20104;-79
2024/01/28 16:22:23;;;;;;;4.18;2.80;;;;;;;6.78;55.59;101632.75;10447221;28;20093;-79
2024/01/28 16:27:27;;;;;;;5.10;3.03;;;;;;;6.73;55.64;101627.59;10447562;28;20045;-78
2024/01/28 16:32:30;;;;;;;7.53;2.70;;;;;;;6.62;55.20;101628.06;10453807;28;20499;-78
2024/01/28 16:37:34;;;;;;;7.25;2.90;;;;;;;6.48;55.30;101624.31;10468584;28;20044;-80
2024/01/28 16:42:37;;;;;;;9.30;3.45;;;;;;;6.52;54.96;101618.72;10469587;28;20049;-77
2024/01/28 16:47:43;;;;;;;7.43;3.17;;;;;;;6.57;54.64;101614.06;10490105;28;20055;-78
2024/01/28 16:52:47;;;;;;;7.43;2.80;;;;;;;6.44;54.75;101622.69;10466880;28;20131;-78
2024/01/28 16:57:51;;;;;;;5.65;3.13;;;;;;;6.40;54.39;101606.81;10492705;28;20056;-78
2024/01/28 17:02:54;;;;;;;7.28;4.32;;;;;;;6.37;54.53;101604.28;10516826;28;20048;-78
2024/01/28 17:07:59;;;;;;;5.93;3.78;;;;;;;6.31;54.54;101615.22;10512174;28;20158;-77
2024/01/28 17:13:02;;;;;;;6.90;3.92;;;;;;;6.31;54.32;101615.22;10502074;28;20052;-78
2024/01/28 17:18:06;;;;;;;8.93;3.25;;;;;;;6.28;54.09;101611.81;10453405;28;20152;-81
2024/01/28 17:23:12;;;;;;;4.95;2.80;;;;;;;6.23;53.86;101612.03;10472384;27;20055;-78
2024/01/28 17:28:16;;;;;;;8.63;5.07;;;;;;;6.09;53.55;101612.63;10478454;28;20071;-79
2024/01/28 17:33:19;;;;;;;14.60;6.90;;;;;;;6.25;53.41;101598.59;10451303;28;20045;-79
2024/01/28 17:38:24;;;;;;;7.95;3.55;;;;;;;6.23;53.09;101605.84;10451213;28;20052;-80
2024/01/28 17:43:28;;;;;;;11.68;4.85;;;;;;;6.21;53.20;101603.22;10448628;28;20113;-79
2024/01/28 17:48:31;;;;;;;9.00;4.90;;;;;;;6.17;52.95;101598.94;10453119;28;20045;-79
2024/01/28 17:53:35;;;;;;;6.40;3.97;;;;;;;6.17;52.73;101599.81;10448239;28;20052;-79
2024/01/28 17:58:38;;;;;;;5.45;3.80;;;;;;;6.11;53.20;101612.53;10445961;28;20532;-77
2024/01/28 18:03:42;;;;;;;8.07;3.58;;;;;;;6.07;53.37;101611.81;10437363;28;20045;-81
2024/01/28 18:08:46;;;;;;;7.95;4.45;;;;;;;6.03;53.55;101604.84;10444113;28;20062;-78
2024/01/28 18:13:50;;;;;;;6.50;3.92;;;;;;;5.84;54.18;101603.91;10437123;28;20128;-77
2024/01/28 18:18:53;;;;;;;9.60;5.03;;;;;;;5.85;54.21;101605.66;10437242;28;20053;-79
2024/01/28 18:23:57;;;;;;;8.27;5.15;;;;;;;5.72;54.93;101599.97;10438601;28;20052;-79
2024/01/28 18:29:01;;;;;;;8.25;4.50;;;;;;;5.64;55.27;101599.41;10446370;28;20056;-78
2024/01/28 18:34:04;;;;;;;9.25;4.43;;;;;;;5.65;55.20;101593.13;10459242;28;20049;-79
2024/01/28 18:39:11;;;;;;;5.30;3.80;;;;;;;5.62;55.25;101582.59;10455281;28;20057;-78
2024/01/28 18:44:14;;;;;;;5.82;3.15;;;;;;;5.58;55.80;101586.34;10459222;28;20131;-79
2024/01/28 18:49:20;;;;;;;5.88;2.88;;;;;;;5.51;56.04;101585.69;10460872;28;20044;-78
2024/01/28 18:54:24;;;;;;;5.00;3.08;;;;;;;5.46;56.68;101585.03;10457717;28;20048;-79
2024/01/28 18:59:27;;;;;;;5.60;3.10;;;;;;;5.41;56.79;101582.56;10461018;28;20352;-78
2024/01/28 19:04:30;;;;;;;4.32;3.28;;;;;;;5.48;56.45;101594.69;10459398;28;20052;-78
2024/01/28 19:09:35;;;;;;;7.00;3.30;;;;;;;5.44;56.41;101593.09;10452556;28;20600;-78
2024/01/28 19:14:38;;;;;;;5.60;3.50;;;;;;;5.42;56.44;101588.75;10454001;28;20092;-79
2024/01/28 19:19:41;;;;;;;6.82;3.28;;;;;;;5.35;56.55;101595.25;10456124;28;20051;-80
2024/01/28 19:24:46;;;;;;;5.38;2.72;;;;;;;5.34;56.47;101593.53;10457992;28;20228;-77
2024/01/28 19:29:50;;;;;;;6.75;3.33;;;;;;;5.27;56.78;101592.91;10454245;28;20048;-78
2024/01/28 19:34:53;;;;;;;9.35;3.85;;;;;;;5.30;56.67;101582.13;10483414;28;20044;-79
2024/01/28 19:39:58;;;;;;;12.95;6.85;;;;;;;5.37;56.49;101585.41;10457573;28;20071;-78
2024/01/28 19:45:03;;;;;;;6.82;4.00;;;;;;;5.41;56.60;101587.03;10455714;28;20413;-77
2024/01/28 19:50:07;;;;;;;7.97;4.18;;;;;;;5.30;56.86;101573.28;10448642;28;20053;-78
2024/01/28 19:55:12;;;;;;;6.75;4.30;;;;;;;5.27;56.86;101574.25;10452704;28;20136;-78
2024/01/28 20:00:15;;;;;;;8.25;4.78;;;;;;;5.17;57.50;101563.09;10437218;28;20048;-76
2024/01/28 20:05:19;;;;;;;8.75;4.30;;;;;;;5.05;57.83;101560.91;10432101;28;20078;-79
2024/01/28 20:10:24;;;;;;;6.38;3.70;;;;;;;5.17;57.29;101554.22;10441506;28;20045;-78
2024/01/28 20:15:27;;;;;;;7.10;3.22;;;;;;;5.16;56.73;101549.84;10453862;28;20052;-79
2024/01/28 20:20:30;;;;;;;5.57;4.30;;;;;;;5.31;55.82;101543.88;10449058;28;20052;-80
2024/01/28 20:25:35;;;;;;;8.30;4.82;;;;;;;5.48;55.19;101538.72;10466293;28;20041;-79
2024/01/28 20:30:38;;;;;;;7.03;4.63;;;;;;;5.63;54.14;101528.38;10465493;28;20052;-77
2024/01/28 20:35:41;;;;;;;6.45;3.92;;;;;;;5.71;53.83;101518.25;10474967;28;20068;-77
2024/01/28 20:40:46;;;;;;;5.20;3.50;;;;;;;5.77;53.79;101522.44;10468386;28;20044;-79
2024/01/28 20:45:50;;;;;;;6.20;3.92;;;;;;;5.51;54.50;101519.06;10472162;28;20057;-79
2024/01/28 20:50:54;;;;;;;4.88;3.85;;;;;;;5.58;54.75;101522.34;10476815;28;20178;-79
2024/01/28 20:56:02;;;;;;;4.80;3.78;;;;;;;5.50;54.65;101507.53;10469093;28;20511;-79
2024/01/28 21:01:05;;;;;;;7.30;3.78;;;;;;;5.39;54.67;101506.25;10465270;28;20140;-80
2024/01/28 21:06:09;;;;;;;8.18;3.78;;;;;;;5.55;54.03;101515.34;10484762;28;20044;-79
2024/01/28 21:11:13;;;;;;;15.15;7.72;;;;;;;5.38;53.82;101513.41;10469918;28;20045;-79
2024/01/28 21:16:16;;;;;;;9.00;4.70;;;;;;;5.40;53.97;101515.97;10467795;28;20515;-79
2024/01/28 21:21:19;;;;;;;6.90;3.58;;;;;;;5.52;53.78;101515.50;10469177;28;20040;-80
2024/01/28 21:26:23;;;;;;;8.80;4.10;;;;;;;5.52;53.87;101510.16;10459535;28;20802;-78
2024/01/28 21:31:27;;;;;;;4.70;3.50;;;;;;;5.40;54.22;101513.31;10484058;28;20072;-79
2024/01/28 21:36:30;;;;;;;10.63;3.60;;;;;;;5.43;54.16;101506.09;10463907;28;20143;-77
2024/01/28 21:41:35;;;;;;;7.28;3.40;;;;;;;5.36;54.60;101506.41;10456297;28;20579;-77
2024/01/28 21:46:38;;;;;;;6.82;3.58;;;;;;;5.40;54.00;101500.00;10437888;28;20053;-80
2024/01/28 21:51:42;;;;;;;6.55;3.20;;;;;;;5.32;53.83;101505.66;10448900;28;20063;-78
2024/01/28 21:56:46;;;;;;;7.80;3.55;;;;;;;5.52;53.73;101496.81;10454526;28;20110;-78
2024/01/28 22:01:49;;;;;;;6.53;3.50;;;;;;;5.50;53.72;101502.22;10451433;28;20107;-79
2024/01/28 22:06:52;;;;;;;4.85;3.58;;;;;;;5.49;53.43;101505.81;10445650;28;20052;-78
2024/01/28 22:11:57;;;;;;;5.50;3.13;;;;;;;5.49;53.35;101494.28;10458107;28;20051;-79
2024/01/28 22:17:00;;;;;;;4.53;2.65;;;;;;;5.54;53.27;101502.06;10455579;28;20091;-79
2024/01/28 22:22:03;;;;;;;7.78;2.75;;;;;;;5.56;53.12;101498.41;10456625;28;20040;-79
2024/01/28 22:27:08;;;;;;;6.38;4.07;;;;;;;5.68;52.92;101486.38;10467174;28;20063;-78
2024/01/28 22:32:11;;;;;;;3.67;2.72;;;;;;;5.59;53.19;101498.28;10457309;28;20543;-79
2024/01/28 22:37:14;;;;;;;4.25;2.60;;;;;;;5.52;53.29;101495.97;10461922;28;20049;-78
2024/01/28 22:42:18;;;;;;;5.05;2.97;;;;;;;5.49;53.75;101495.16;10459780;28;20056;-79
2024/01/28 22:47:21;;;;;;;7.47;2.83;;;;;;;5.46;53.57;101486.44;10464236;28;20720;-78
2024/01/28 22:52:24;;;;;;;3.65;2.80;;;;;;;5.45;53.78;101500.66;10462993;28;20052;-78
2024/01/28 22:57:29;;;;;;;3.22;2.25;;;;;;;5.36;54.15;101509.91;10469109;28;20055;-77
2024/01/28 23:02:32;;;;;;;6.32;2.67;;;;;;;5.25;54.53;101510.38;10469974;28;20059;-79
2024/01/28 23:07:35;;;;;;;5.60;3.00;;;;;;;5.25;54.53;101502.38;10454606;28;20052;-78
2024/01/28 23:12:39;;;;;;;4.78;2.85;;;;;;;5.16;54.83;101500.09;10441987;28;20117;-77
2024/01/28 23:17:42;;;;;;;6.65;4.13;;;;;;;5.12;54.99;101494.94;10439486;28;20049;-77
2024/01/28 23:22:45;;;;;;;6.97;3.88;;;;;;;5.00;55.14;101499.84;10444237;28;20047;-77